Time;durP1;ratioP1;P1;durP2;ratioP2;P2;SDS_P1;SDS_P2;PMS_P1;PMS_P2;Temp;Humidity;BMP_temperature;BMP_pressure;BME280_temperature;BME280_humidity;BME280_pressure;Samples;Min_cycle;Max_cycle;Signal;HPM_P1;HPM_P2
2022/03/04 00:00:48;;;;;;;47.60;15.63;;;;;;;0.90;100.00;98137.41;5009094;28;20034;-55
2022/03/04 00:03:13;;;;;;;56.30;16.27;;;;;;;0.87;100.00;98139.97;5010464;28;20462;-57
2022/03/04 00:05:40;;;;;;;53.60;16.38;;;;;;;0.83;100.00;98140.84;5008735;28;20881;-55
2022/03/04 00:08:05;;;;;;;57.58;14.07;;;;;;;1.06;100.00;98139.97;5007779;28;20033;-57
2022/03/04 00:10:31;;;;;;;61.10;18.05;;;;;;;0.90;100.00;98141.69;5008221;28;20070;-55
2022/03/04 00:12:56;;;;;;;47.95;15.23;;;;;;;0.90;100.00;98145.13;5010373;28;20022;-58
2022/03/04 00:15:22;;;;;;;48.33;13.65;;;;;;;0.83;100.00;98153.69;5008878;28;20420;-54
2022/03/04 00:17:48;;;;;;;45.50;11.70;;;;;;;1.01;100.00;98145.13;5008560;28;20203;-56
2022/03/04 00:20:13;;;;;;;69.70;18.80;;;;;;;0.79;100.00;98146.84;5008787;28;20117;-56
2022/03/04 00:22:38;;;;;;;63.40;18.23;;;;;;;0.83;100.00;98148.53;5009288;28;20067;-56
2022/03/04 00:25:05;;;;;;;52.72;17.80;;;;;;;0.29;100.00;98150.16;5009966;28;20029;-58
2022/03/04 00:27:30;;;;;;;57.92;17.88;;;;;;;0.01;100.00;98157.78;5008774;28;20578;-55
2022/03/04 00:29:56;;;;;;;51.30;15.90;;;;;;;0.33;100.00;98149.31;5007774;28;20053;-57
2022/03/04 00:32:21;;;;;;;54.42;17.02;;;;;;;0.05;100.00;98156.09;5007740;28;20801;-57
2022/03/04 00:34:46;;;;;;;66.53;17.33;;;;;;;0.26;100.00;98151.03;5005533;28;20041;-57
2022/03/04 00:37:12;;;;;;;55.05;17.75;;;;;;;0.07;100.00;98157.78;5010405;28;20079;-56
2022/03/04 00:39:37;;;;;;;49.70;14.05;;;;;;;0.33;100.00;98157.91;5009610;28;20030;-58
2022/03/04 00:42:03;;;;;;;53.17;16.98;;;;;;;-0.14;100.00;98160.31;5010121;28;20034;-57
2022/03/04 00:44:29;;;;;;;56.97;18.00;;;;;;;-0.53;100.00;98154.09;5010550;28;20029;-56
2022/03/04 00:46:54;;;;;;;56.40;17.17;;;;;;;-0.12;100.00;98158.59;5007704;28;20030;-55
2022/03/04 00:49:20;;;;;;;48.53;10.95;;;;;;;0.39;100.00;98154.47;4993106;28;20045;-57
2022/03/04 00:51:45;;;;;;;43.90;12.80;;;;;;;0.26;100.00;98150.16;5006910;28;20157;-55
2022/03/04 00:54:11;;;;;;;51.55;14.50;;;;;;;0.28;100.00;98145.91;5009834;28;20022;-57
2022/03/04 00:56:36;;;;;;;52.55;15.45;;;;;;;0.55;100.00;98147.66;5008518;28;20095;-56
2022/03/04 00:59:02;;;;;;;57.25;16.73;;;;;;;0.08;100.00;98151.81;5008901;28;20026;-55
2022/03/04 01:01:28;;;;;;;40.90;11.52;;;;;;;0.63;100.00;98160.53;5007501;28;20606;-56
2022/03/04 01:03:53;;;;;;;35.13;9.77;;;;;;;0.72;100.00;98150.25;5007873;28;20790;-57
2022/03/04 01:06:18;;;;;;;50.25;13.23;;;;;;;0.87;100.00;98149.41;5008660;28;20057;-58
2022/03/04 01:08:44;;;;;;;38.08;10.60;;;;;;;0.71;100.00;98153.66;5007783;28;20022;-57
2022/03/04 01:11:09;;;;;;;38.35;9.80;;;;;;;0.74;100.00;98145.97;5009145;28;20034;-57
2022/03/04 01:13:35;;;;;;;60.28;15.85;;;;;;;0.35;100.00;98150.19;5009660;28;20110;-57
2022/03/04 01:16:00;;;;;;;51.10;12.43;;;;;;;0.42;100.00;98151.91;5009078;28;20049;-58
2022/03/04 01:18:26;;;;;;;45.47;13.80;;;;;;;0.12;100.00;98148.41;5008262;28;20026;-57
2022/03/04 01:20:51;;;;;;;54.75;13.38;;;;;;;0.19;100.00;98149.31;5006605;28;20147;-56
2022/03/04 01:23:18;;;;;;;44.63;13.57;;;;;;;0.07;100.00;98142.41;5006764;28;20079;-56
2022/03/04 01:25:43;;;;;;;56.15;15.93;;;;;;;0.02;100.00;98153.50;5005761;28;20053;-57
2022/03/04 01:28:09;;;;;;;46.03;10.48;;;;;;;0.26;100.00;98145.91;5009247;28;20038;-57
2022/03/04 01:30:34;;;;;;;37.45;10.68;;;;;;;0.26;100.00;98150.16;5007091;28;20455;-58
2022/03/04 01:32:59;;;;;;;39.58;10.50;;;;;;;0.24;100.00;98141.59;5006929;28;20065;-58
2022/03/04 01:35:25;;;;;;;53.08;16.73;;;;;;;-0.17;100.00;98144.91;5004685;28;20030;-57
2022/03/04 01:37:50;;;;;;;67.55;17.55;;;;;;;-0.34;100.00;98143.09;5006125;28;20046;-56
2022/03/04 01:40:16;;;;;;;48.80;11.90;;;;;;;0.06;100.00;98143.28;5006093;28;20419;-55
2022/03/04 01:42:41;;;;;;;35.67;9.02;;;;;;;0.46;100.00;98138.25;5006945;28;20040;-58
2022/03/04 01:45:09;;;;;;;46.25;13.27;;;;;;;0.29;100.00;98145.03;5007291;28;20116;-57
2022/03/04 01:47:38;;;;;;;57.53;17.02;;;;;;;-0.39;100.00;98147.34;5006267;28;20084;-57
2022/03/04 01:50:04;;;;;;;48.70;11.93;;;;;;;0.25;100.00;98135.63;5004837;28;20025;-56
2022/03/04 01:52:30;;;;;;;46.22;12.38;;;;;;;0.69;100.00;98134.84;5006357;28;20029;-56
2022/03/04 01:54:55;;;;;;;69.97;17.33;;;;;;;0.14;100.00;98131.31;5005621;28;20028;-57
2022/03/04 01:57:21;;;;;;;50.13;15.73;;;;;;;-0.54;100.00;98129.34;5008531;28;20530;-57
2022/03/04 01:59:46;;;;;;;40.17;9.15;;;;;;;0.74;100.00;98122.88;5009065;28;20499;-58
2022/03/04 02:02:11;;;;;;;38.00;9.20;;;;;;;1.19;100.00;98128.81;5007844;28;20041;-57
2022/03/04 02:04:37;;;;;;;55.38;17.23;;;;;;;-0.38;100.00;98128.56;5010077;28;20035;-56
2022/03/04 02:07:03;;;;;;;57.90;15.98;;;;;;;-0.30;100.00;98129.44;5003762;28;20561;-58
2022/03/04 02:09:28;;;;;;;40.10;10.80;;;;;;;0.45;100.00;98127.97;5008001;28;20022;-59
2022/03/04 02:11:54;;;;;;;42.15;10.65;;;;;;;0.67;100.00;98126.28;5008018;28;20744;-56
2022/03/04 02:14:19;;;;;;;40.90;8.98;;;;;;;0.93;100.00;98128.84;5008887;28;20018;-55
2022/03/04 02:16:47;;;;;;;49.72;11.48;;;;;;;0.70;100.00;98121.13;5006741;28;20096;-57
2022/03/04 02:19:13;;;;;;;44.88;12.07;;;;;;;0.38;100.00;98124.53;5007375;28;20949;-54
2022/03/04 02:21:55;;;;;;;53.55;16.15;;;;;;;0.18;100.00;98122.81;5002554;28;20927;-56
2022/03/04 02:24:22;;;;;;;51.50;13.77;;;;;;;0.14;100.00;98120.22;5007076;28;20104;-54
2022/03/04 02:26:48;;;;;;;56.72;17.08;;;;;;;-0.68;100.00;98122.44;5005970;28;20579;-55
2022/03/04 02:29:14;;;;;;;54.65;15.82;;;;;;;-0.45;100.00;98119.16;5005237;28;20484;-54
2022/03/04 02:31:40;;;;;;;53.60;15.55;;;;;;;-0.46;100.00;98117.41;5006929;28;20092;-56
2022/03/04 02:34:05;;;;;;;58.78;15.50;;;;;;;-0.40;100.00;98113.19;5007171;28;20052;-56
2022/03/04 02:36:31;;;;;;;54.65;14.15;;;;;;;-0.56;100.00;98115.69;5004679;28;20133;-57
2022/03/04 02:38:56;;;;;;;51.90;15.45;;;;;;;-0.87;100.00;98116.34;5006895;28;20057;-55
2022/03/04 02:41:21;;;;;;;63.78;18.08;;;;;;;-1.18;100.00;98121.28;5001833;28;20038;-55
2022/03/04 02:43:47;;;;;;;49.28;15.05;;;;;;;-1.26;100.00;98127.16;5007612;28;20026;-56
2022/03/04 02:46:13;;;;;;;54.33;15.23;;;;;;;-1.45;100.00;98116.78;5006558;28;20045;-55
2022/03/04 02:48:39;;;;;;;48.63;12.55;;;;;;;-0.77;100.00;98112.16;5005788;28;20029;-55
2022/03/04 02:51:04;;;;;;;45.25;12.45;;;;;;;-0.51;100.00;98119.13;5006657;28;20116;-54
2022/03/04 02:53:29;;;;;;;52.17;13.88;;;;;;;-0.92;100.00;98119.72;5006381;28;20088;-55
2022/03/04 02:55:55;;;;;;;53.10;15.75;;;;;;;-0.63;100.00;98119.91;5006397;28;20491;-54
2022/03/04 02:58:20;;;;;;;55.33;15.07;;;;;;;-0.72;100.00;98115.56;5007184;28;20519;-55
2022/03/04 03:00:45;;;;;;;42.58;10.45;;;;;;;-0.70;100.00;98116.47;5005924;28;20464;-55
2022/03/04 03:03:10;;;;;;;55.97;15.55;;;;;;;-0.90;100.00;98129.13;5006910;28;20082;-55
2022/03/04 03:05:36;;;;;;;55.55;16.98;;;;;;;-0.89;100.00;98130.00;5005585;28;20327;-57
2022/03/04 03:08:02;;;;;;;50.80;16.45;;;;;;;-1.28;100.00;98128.84;5007059;28;20092;-56
2022/03/04 03:10:27;;;;;;;79.43;17.92;;;;;;;-0.94;100.00;98127.38;5006065;28;20112;-60
2022/03/04 03:12:52;;;;;;;51.40;16.33;;;;;;;-1.04;100.00;98128.19;5006417;28;20025;-58
2022/03/04 03:15:18;;;;;;;61.45;17.80;;;;;;;-1.49;100.00;98129.50;5006989;28;20176;-58
2022/03/04 03:17:43;;;;;;;50.95;16.05;;;;;;;-1.11;100.00;98132.38;5004551;28;20763;-59
2022/03/04 03:20:09;;;;;;;46.22;13.43;;;;;;;-1.02;100.00;98137.56;5004236;28;20107;-57
2022/03/04 03:22:35;;;;;;;59.10;16.50;;;;;;;-1.33;100.00;98136.47;5007402;28;20126;-56
2022/03/04 03:25:01;;;;;;;56.88;16.92;;;;;;;-1.36;100.00;98132.22;5005948;28;20054;-59
2022/03/04 03:27:26;;;;;;;51.60;15.20;;;;;;;-0.98;100.00;98134.19;5007237;28;20049;-59
2022/03/04 03:29:51;;;;;;;58.35;16.17;;;;;;;-1.00;100.00;98137.59;5004647;28;20014;-58
2022/03/04 03:32:17;;;;;;;56.92;16.38;;;;;;;-1.04;100.00;98144.41;5006114;28;20128;-56
2022/03/04 03:34:42;;;;;;;56.80;14.50;;;;;;;-1.09;100.00;98140.94;5004227;28;20022;-55
2022/03/04 03:37:09;;;;;;;54.95;15.68;;;;;;;-1.18;100.00;98135.75;5004594;28;20609;-56
2022/03/04 03:39:35;;;;;;;56.97;16.48;;;;;;;-1.40;100.00;98144.94;5005637;28;20029;-55
2022/03/04 03:42:00;;;;;;;60.53;15.85;;;;;;;-1.27;100.00;98136.56;5004347;28;20734;-57
2022/03/04 03:44:25;;;;;;;44.22;10.93;;;;;;;-0.84;100.00;98141.13;5005780;28;20762;-56
2022/03/04 03:46:51;;;;;;;61.20;14.80;;;;;;;-1.09;100.00;98143.50;5005003;28;20053;-57
2022/03/04 03:49:16;;;;;;;61.65;18.10;;;;;;;-1.22;100.00;98139.13;5007749;28;20124;-55
2022/03/04 03:51:42;;;;;;;38.78;11.07;;;;;;;-0.69;100.00;98136.09;5003283;28;20045;-56
2022/03/04 03:54:07;;;;;;;41.08;10.15;;;;;;;-0.29;100.00;98145.72;5006735;28;20032;-57
2022/03/04 03:56:33;;;;;;;42.55;9.57;;;;;;;0.30;100.00;98144.19;5006678;28;20041;-58
2022/03/04 03:58:58;;;;;;;53.80;13.77;;;;;;;-0.05;100.00;98147.50;5003967;28;20158;-55
2022/03/04 04:01:23;;;;;;;44.53;12.02;;;;;;;-0.17;100.00;98160.28;5003611;28;20045;-55
2022/03/04 04:03:49;;;;;;;40.30;9.52;;;;;;;0.19;100.00;98155.28;5005842;28;20349;-55
2022/03/04 04:06:14;;;;;;;47.08;14.25;;;;;;;-0.08;100.00;98156.03;5003780;28;20520;-56
2022/03/04 04:08:40;;;;;;;51.95;16.15;;;;;;;-0.28;100.00;98155.09;5005397;28;20426;-59
2022/03/04 04:11:06;;;;;;;51.50;10.93;;;;;;;-0.22;100.00;98158.56;5005937;28;20148;-55
2022/03/04 04:13:31;;;;;;;51.88;16.55;;;;;;;-0.73;100.00;98151.44;5004508;28;20116;-58
2022/03/04 04:15:57;;;;;;;54.65;16.10;;;;;;;-0.85;100.00;98155.63;5004449;28;20120;-57
2022/03/04 04:18:22;;;;;;;40.33;13.63;;;;;;;-0.54;100.00;98153.25;5006402;28;20105;-56
2022/03/04 04:20:47;;;;;;;58.92;16.27;;;;;;;-0.49;100.00;98158.41;5004719;28;20026;-57
2022/03/04 04:23:12;;;;;;;53.70;12.85;;;;;;;-0.75;100.00;98160.78;5005088;28;20113;-57
2022/03/04 04:25:38;;;;;;;37.80;9.75;;;;;;;-0.51;100.00;98165.25;5006377;28;20049;-57
2022/03/04 04:28:03;;;;;;;61.28;18.52;;;;;;;-1.26;100.00;98165.56;5004941;28;20030;-57
2022/03/04 04:30:30;;;;;;;49.85;11.13;;;;;;;-0.47;100.00;98167.81;5005631;28;20048;-57
2022/03/04 04:32:55;;;;;;;55.60;16.25;;;;;;;-0.68;100.00;98163.44;5005427;28;20129;-56
2022/03/04 04:35:20;;;;;;;52.65;14.40;;;;;;;-0.43;100.00;98161.84;5002190;28;20025;-58
2022/03/04 04:37:46;;;;;;;49.72;16.13;;;;;;;-1.08;100.00;98177.66;5006721;28;20032;-57
2022/03/04 04:40:11;;;;;;;50.40;14.05;;;;;;;-0.73;100.00;98170.22;5008271;28;20577;-57
2022/03/04 04:42:37;;;;;;;53.85;17.58;;;;;;;-1.69;100.00;98177.91;5009291;28;20659;-57
2022/03/04 04:45:03;;;;;;;63.50;16.75;;;;;;;-1.31;100.00;98174.88;5008253;28;20554;-57
2022/03/04 04:47:28;;;;;;;52.03;14.20;;;;;;;-0.82;100.00;98176.13;5005550;28;20029;-56
2022/03/04 04:49:53;;;;;;;58.35;17.77;;;;;;;-1.26;100.00;98176.63;5010722;28;20026;-56
2022/03/04 04:52:19;;;;;;;57.25;17.23;;;;;;;-1.39;100.00;98177.38;5009918;28;20037;-57
2022/03/04 04:54:44;;;;;;;68.75;18.02;;;;;;;-1.49;100.00;98171.31;5009074;28;20032;-55
2022/03/04 04:57:10;;;;;;;48.40;13.82;;;;;;;-1.04;100.00;98182.78;5006827;28;20058;-58
2022/03/04 04:59:35;;;;;;;54.75;14.90;;;;;;;-1.47;100.00;98181.53;5008603;28;20136;-57
2022/03/04 05:02:00;;;;;;;110.00;17.88;;;;;;;-1.06;100.00;98187.06;5005521;28;20091;-55
2022/03/04 05:04:26;;;;;;;61.45;17.85;;;;;;;-2.01;100.00;98176.72;5008217;28;20025;-55
2022/03/04 05:06:51;;;;;;;56.05;16.13;;;;;;;-1.82;100.00;98182.91;5005448;28;20042;-56
2022/03/04 05:09:17;;;;;;;68.93;17.73;;;;;;;-2.22;100.00;98190.09;5012081;28;20758;-56
2022/03/04 05:11:43;;;;;;;64.63;16.63;;;;;;;-1.83;100.00;98195.69;5008142;28;20038;-57
2022/03/04 05:14:08;;;;;;;42.60;11.27;;;;;;;-1.52;100.00;98188.34;5006181;28;20030;-56
2022/03/04 05:16:33;;;;;;;64.22;14.20;;;;;;;-1.48;100.00;98192.63;5005640;28;20037;-56
2022/03/04 05:18:59;;;;;;;43.72;12.82;;;;;;;-1.34;100.00;98192.75;5006926;28;20124;-57
2022/03/04 05:21:24;;;;;;;63.70;18.05;;;;;;;-2.03;100.00;98192.88;5007820;28;20521;-57
2022/03/04 05:23:59;;;;;;;62.38;15.85;;;;;;;-2.00;100.00;98198.03;5008688;28;20087;-56
2022/03/04 05:26:24;;;;;;;59.80;17.05;;;;;;;-1.65;100.00;98189.91;5007290;28;20107;-56
2022/03/04 05:28:50;;;;;;;62.38;15.13;;;;;;;-1.75;100.00;98199.16;5007394;28;20029;-57
2022/03/04 05:31:16;;;;;;;51.63;12.90;;;;;;;-1.29;100.00;98193.66;5006068;28;20641;-58
2022/03/04 05:33:41;;;;;;;54.92;15.82;;;;;;;-1.90;100.00;98189.63;5007883;28;20029;-57
2022/03/04 05:36:06;;;;;;;60.78;18.08;;;;;;;-2.15;100.00;98196.13;5004877;28;20042;-57
2022/03/04 05:38:32;;;;;;;59.08;15.43;;;;;;;-1.99;100.00;98194.63;5008305;28;20029;-57
2022/03/04 05:40:57;;;;;;;63.20;17.67;;;;;;;-2.06;100.00;98196.28;5008914;28;20034;-59
2022/03/04 05:43:23;;;;;;;51.75;12.77;;;;;;;-1.80;100.00;98201.69;5009910;28;20588;-55
2022/03/04 05:45:48;;;;;;;76.47;19.30;;;;;;;-2.44;100.00;98206.84;5006186;28;20037;-55
2022/03/04 05:48:13;;;;;;;64.93;18.77;;;;;;;-2.27;100.00;98213.88;5008195;28;20087;-57
2022/03/04 05:50:39;;;;;;;75.88;18.55;;;;;;;-1.97;100.00;98213.41;5006941;28;20120;-55
2022/03/04 05:53:04;;;;;;;57.70;15.20;;;;;;;-1.80;100.00;98217.03;5010046;28;20112;-57
2022/03/04 05:55:29;;;;;;;66.05;17.58;;;;;;;-1.77;100.00;98208.53;5000462;28;20061;-58
2022/03/04 05:57:55;;;;;;;53.42;12.75;;;;;;;-1.54;100.00;98213.91;5006933;28;20591;-58
2022/03/04 06:00:21;;;;;;;51.50;13.88;;;;;;;-1.24;100.00;98212.50;5007353;28;20069;-56
2022/03/04 06:02:46;;;;;;;65.65;15.73;;;;;;;-1.17;100.00;98219.38;5005507;28;20466;-57
2022/03/04 06:05:11;;;;;;;67.88;18.58;;;;;;;-0.95;100.00;98228.13;5004849;28;20593;-57
2022/03/04 06:07:37;;;;;;;45.65;12.25;;;;;;;-0.62;100.00;98230.06;5006709;28;20026;-56
2022/03/04 06:10:03;;;;;;;56.97;16.02;;;;;;;-1.76;100.00;98236.69;5004820;28;20069;-58
2022/03/04 06:12:28;;;;;;;57.75;14.32;;;;;;;-0.94;100.00;98239.19;5003290;28;20544;-57
2022/03/04 06:14:54;;;;;;;86.75;20.95;;;;;;;-1.41;100.00;98235.34;5002545;28;20751;-56
2022/03/04 06:17:19;;;;;;;87.43;21.60;;;;;;;-1.25;100.00;98231.22;5005634;28;20581;-56
2022/03/04 06:19:44;;;;;;;72.85;21.23;;;;;;;-1.40;100.00;98242.16;5007086;28;20034;-56
2022/03/04 06:22:10;;;;;;;78.63;24.38;;;;;;;-1.53;100.00;98242.88;5005005;28;20133;-55
2022/03/04 06:24:36;;;;;;;72.20;22.15;;;;;;;-1.53;100.00;98248.84;5005834;28;20033;-57
2022/03/04 06:27:02;;;;;;;79.07;23.40;;;;;;;-0.81;100.00;98243.56;5004360;28;20049;-56
2022/03/04 06:29:27;;;;;;;70.38;20.48;;;;;;;-0.61;100.00;98257.44;5007034;28;20030;-56
2022/03/04 06:31:53;;;;;;;71.93;20.55;;;;;;;-0.43;100.00;98251.56;5001957;28;20038;-55
2022/03/04 06:34:18;;;;;;;56.10;19.02;;;;;;;-0.36;100.00;98249.91;5005497;28;20681;-54
2022/03/04 06:36:43;;;;;;;57.83;18.83;;;;;;;-0.33;100.00;98257.63;5003390;28;20038;-55
2022/03/04 06:39:09;;;;;;;49.97;16.05;;;;;;;-0.11;100.00;98260.28;5007335;28;20032;-56
2022/03/04 06:41:34;;;;;;;50.60;17.08;;;;;;;1.32;100.00;98264.16;5005282;28;20111;-55
2022/03/04 06:43:59;;;;;;;56.35;17.98;;;;;;;2.93;100.00;98266.25;5008429;28;20026;-56
2022/03/04 06:46:25;;;;;;;56.45;17.75;;;;;;;4.02;100.00;98261.03;5004432;28;20042;-56
2022/03/04 06:48:50;;;;;;;59.22;18.38;;;;;;;4.86;100.00;98262.63;5007261;28;20065;-54
2022/03/04 06:51:16;;;;;;;54.05;17.23;;;;;;;5.67;96.26;98263.09;5004555;28;20060;-54
2022/03/04 06:53:41;;;;;;;49.70;17.08;;;;;;;6.58;83.12;98262.28;5007571;28;20038;-54
2022/03/04 06:56:06;;;;;;;44.58;16.95;;;;;;;6.95;73.75;98258.91;5002800;28;20615;-57
2022/03/04 06:58:32;;;;;;;49.58;17.92;;;;;;;7.53;70.54;98262.75;5005810;28;20029;-56
2022/03/04 07:00:57;;;;;;;43.80;17.27;;;;;;;7.99;65.74;98265.88;5005187;28;20097;-57
2022/03/04 07:03:23;;;;;;;43.88;17.88;;;;;;;8.74;60.58;98260.38;5006185;28;20061;-55
2022/03/04 07:05:49;;;;;;;46.45;18.42;;;;;;;8.80;58.37;98254.16;5003842;28;20076;-57
2022/03/04 07:08:15;;;;;;;44.85;17.98;;;;;;;9.47;54.00;98253.81;5004040;28;20144;-55
2022/03/04 07:10:43;;;;;;;42.58;18.15;;;;;;;11.78;53.63;98247.88;5006056;28;20061;-56
2022/03/04 07:13:08;;;;;;;45.38;18.55;;;;;;;10.69;47.86;98257.44;5006710;28;20480;-57
2022/03/04 07:15:35;;;;;;;40.70;17.17;;;;;;;10.60;52.20;98246.44;5004536;28;20096;-59
2022/03/04 07:18:00;;;;;;;42.20;18.17;;;;;;;9.39;52.78;98248.00;5007382;28;20562;-55
2022/03/04 07:20:25;;;;;;;41.67;19.00;;;;;;;8.65;55.86;98247.66;5005688;28;20040;-57
2022/03/04 07:22:51;;;;;;;38.05;18.65;;;;;;;5.54;63.29;98260.72;5007478;28;20490;-56
2022/03/04 07:25:16;;;;;;;42.05;19.15;;;;;;;6.64;76.26;98264.75;5006075;28;20033;-56
2022/03/04 07:27:42;;;;;;;41.28;18.30;;;;;;;6.00;80.51;98263.44;5007039;28;20025;-55
2022/03/04 07:30:13;;;;;;;40.92;18.23;;;;;;;5.00;85.81;98263.28;5005993;28;20037;-55
2022/03/04 07:32:40;;;;;;;44.92;19.00;;;;;;;5.89;80.58;98263.59;5006632;28;20068;-57
2022/03/04 07:35:07;;;;;;;42.80;15.88;;;;;;;7.08;100.00;98265.53;5005346;28;20029;-56
2022/03/04 07:37:37;;;;;;;44.95;19.80;;;;;;;7.43;86.61;98258.66;5005867;28;20046;-56
2022/03/04 07:40:07;;;;;;;48.65;20.15;;;;;;;7.79;78.46;98265.56;5005919;28;20036;-56
2022/03/04 07:42:33;;;;;;;49.22;19.80;;;;;;;8.75;63.91;98261.22;5004064;28;20041;-57
2022/03/04 07:44:59;;;;;;;46.33;19.77;;;;;;;9.83;59.16;98264.78;5006142;28;20022;-56
2022/03/04 07:47:24;;;;;;;41.55;19.42;;;;;;;11.65;54.47;98262.38;5005938;28;20045;-55
2022/03/04 07:49:50;;;;;;;38.38;18.88;;;;;;;11.62;48.79;98263.38;5007559;28;20021;-57
2022/03/04 07:52:15;;;;;;;42.88;19.05;;;;;;;10.34;52.69;98267.41;5004173;28;20470;-55
2022/03/04 07:54:41;;;;;;;42.50;20.27;;;;;;;10.32;50.07;98270.06;5003781;28;20026;-57
2022/03/04 07:57:07;;;;;;;43.45;20.42;;;;;;;13.27;45.47;98266.56;5004677;28;20037;-56
2022/03/04 07:59:33;;;;;;;41.83;19.70;;;;;;;13.17;44.57;98263.56;5005551;28;20711;-57
2022/03/04 08:01:58;;;;;;;39.08;20.15;;;;;;;12.83;43.38;98270.38;5005439;28;20045;-57
2022/03/04 08:04:24;;;;;;;47.15;19.95;;;;;;;15.29;43.29;98267.59;5004585;28;20059;-56
2022/03/04 08:06:50;;;;;;;39.10;19.20;;;;;;;14.62;44.23;98259.84;5004371;28;20517;-56
2022/03/04 08:09:15;;;;;;;41.50;19.83;;;;;;;15.56;41.89;98265.19;5005477;28;20483;-57
2022/03/04 08:11:40;;;;;;;36.95;20.20;;;;;;;14.49;40.68;98268.44;5004980;28;20041;-57
2022/03/04 08:14:06;;;;;;;40.13;19.85;;;;;;;15.51;42.28;98271.63;5011282;28;20033;-57
2022/03/04 08:16:33;;;;;;;39.85;20.67;;;;;;;13.84;41.18;98274.31;5006792;28;20049;-57
2022/03/04 08:18:59;;;;;;;39.13;19.45;;;;;;;15.40;38.65;98267.84;5009612;28;20045;-58
2022/03/04 08:21:25;;;;;;;38.00;19.40;;;;;;;12.62;42.31;98268.72;5007063;28;20034;-57
2022/03/04 08:23:50;;;;;;;40.70;18.98;;;;;;;15.12;40.96;98265.06;5011625;28;20041;-56
2022/03/04 08:26:16;;;;;;;37.20;18.40;;;;;;;12.51;42.11;98272.66;5009202;28;20432;-57
2022/03/04 08:28:41;;;;;;;40.88;19.17;;;;;;;15.34;38.87;98268.16;5011319;28;20038;-58
2022/03/04 08:31:12;;;;;;;34.55;18.38;;;;;;;15.74;38.95;98265.94;5007151;28;20038;-55
2022/03/04 08:33:43;;;;;;;35.75;15.63;;;;;;;15.08;45.91;98269.63;5009331;28;20025;-57
2022/03/04 08:36:09;;;;;;;36.30;17.63;;;;;;;15.34;38.97;98270.81;5012239;28;20041;-56
2022/03/04 08:38:35;;;;;;;42.35;19.48;;;;;;;14.28;41.27;98273.88;5007783;28;20500;-58
2022/03/04 08:41:00;;;;;;;34.67;17.95;;;;;;;10.77;44.29;98281.47;5006223;28;20046;-57
2022/03/04 08:43:26;;;;;;;36.55;18.30;;;;;;;11.74;42.73;98283.78;5008702;28;20091;-57
2022/03/04 08:45:52;;;;;;;35.92;18.00;;;;;;;12.05;43.41;98277.28;5006107;28;20038;-58
2022/03/04 08:48:18;;;;;;;33.42;16.35;;;;;;;13.40;38.93;98275.59;5010825;28;20030;-57
2022/03/04 08:50:43;;;;;;;35.20;16.65;;;;;;;11.20;44.47;98279.84;5008996;28;20033;-58
2022/03/04 08:53:09;;;;;;;36.53;16.15;;;;;;;14.11;41.03;98276.50;5006884;28;20057;-58
2022/03/04 08:55:34;;;;;;;34.38;15.98;;;;;;;13.42;41.52;98268.50;5007474;28;20030;-57
2022/03/04 08:58:00;;;;;;;35.97;16.25;;;;;;;12.62;43.57;98271.34;5008785;28;20554;-57
2022/03/04 09:00:28;;;;;;;34.83;16.92;;;;;;;12.66;42.68;98272.91;5007604;28;20045;-58
2022/03/04 09:02:54;;;;;;;38.13;16.50;;;;;;;10.31;47.00;98270.09;5007568;28;20026;-56
2022/03/04 09:05:19;;;;;;;33.58;16.60;;;;;;;11.64;45.76;98274.59;5005582;28;20022;-58
2022/03/04 09:07:45;;;;;;;40.65;17.23;;;;;;;10.57;47.83;98272.63;5009422;28;20033;-58
2022/03/04 09:10:10;;;;;;;36.05;16.17;;;;;;;14.14;41.16;98261.44;5008259;28;20496;-57
2022/03/04 09:12:36;;;;;;;32.38;15.10;;;;;;;14.29;40.33;98265.06;5009900;28;20029;-58
2022/03/04 09:15:03;;;;;;;35.42;15.65;;;;;;;14.68;38.72;98268.31;5006962;28;20431;-56
2022/03/04 09:17:28;;;;;;;31.98;14.82;;;;;;;9.92;45.93;98266.19;5008978;28;20045;-58
2022/03/04 09:19:53;;;;;;;34.30;15.70;;;;;;;12.07;43.06;98274.59;5007696;28;20055;-55
2022/03/04 09:22:19;;;;;;;35.03;15.93;;;;;;;13.73;41.02;98266.16;5005292;28;20049;-56
2022/03/04 09:24:44;;;;;;;37.08;16.52;;;;;;;12.86;40.99;98269.38;5008465;28;20180;-57
2022/03/04 09:27:10;;;;;;;30.45;14.68;;;;;;;13.68;40.18;98264.59;5007991;28;20121;-57
2022/03/04 09:29:35;;;;;;;32.42;16.13;;;;;;;11.53;44.13;98268.97;5007310;28;20025;-56
2022/03/04 09:32:01;;;;;;;33.72;15.77;;;;;;;13.18;41.68;98262.66;5006224;28;20133;-56
2022/03/04 09:34:26;;;;;;;32.75;15.38;;;;;;;10.73;43.18;98272.06;5008882;28;20030;-59
2022/03/04 09:36:51;;;;;;;29.13;14.48;;;;;;;12.03;47.27;98257.34;5005587;28;20034;-59
2022/03/04 09:39:17;;;;;;;32.20;15.00;;;;;;;11.93;41.59;98264.75;5010013;28;20393;-60
2022/03/04 09:41:44;;;;;;;32.40;14.90;;;;;;;14.14;39.16;98260.59;5007666;28;20675;-57
2022/03/04 09:44:11;;;;;;;31.13;14.38;;;;;;;11.51;43.13;98261.19;5006253;28;20040;-59
2022/03/04 09:46:37;;;;;;;33.33;15.25;;;;;;;13.03;40.77;98261.59;5006331;28;20357;-61
2022/03/04 09:49:02;;;;;;;33.50;16.05;;;;;;;11.92;43.13;98265.66;5008858;28;20590;-59
2022/03/04 09:51:28;;;;;;;30.05;13.68;;;;;;;15.60;38.26;98252.69;5007551;28;20423;-59
2022/03/04 09:53:53;;;;;;;30.73;14.48;;;;;;;14.24;37.96;98248.69;5007111;28;20111;-57
2022/03/04 09:56:20;;;;;;;32.40;14.77;;;;;;;13.86;38.24;98251.53;5006201;28;20034;-59
2022/03/04 09:58:47;;;;;;;35.20;14.20;;;;;;;11.69;42.49;98258.72;5009092;28;20026;-59
2022/03/04 10:01:14;;;;;;;34.63;15.50;;;;;;;14.01;39.49;98258.59;5007259;28;20096;-59
2022/03/04 10:03:39;;;;;;;33.55;14.65;;;;;;;13.88;42.67;98249.66;5009294;28;20033;-59
2022/03/04 10:06:05;;;;;;;31.03;14.70;;;;;;;12.47;40.33;98258.03;5003624;28;20057;-59
2022/03/04 10:08:37;;;;;;;28.42;13.82;;;;;;;13.55;39.53;98254.81;5007459;28;20272;-57
2022/03/04 10:11:02;;;;;;;30.38;13.93;;;;;;;12.88;41.76;98257.06;5003491;28;20108;-58
2022/03/04 10:13:47;;;;;;;29.50;14.55;;;;;;;15.03;46.92;98246.25;5007276;28;20057;-59
2022/03/04 10:16:22;;;;;;;27.35;13.93;;;;;;;15.38;37.07;98239.94;5004982;28;20428;-59
2022/03/04 10:19:23;;;;;;;28.80;12.98;;;;;;;12.24;40.00;98255.56;5007600;28;20044;-58
2022/03/04 10:21:59;;;;;;;26.13;12.18;;;;;;;14.78;44.13;98249.38;5005109;28;20042;-59
2022/03/04 10:24:32;;;;;;;29.27;13.65;;;;;;;12.21;40.88;98253.09;5009657;28;20120;-59
2022/03/04 10:27:00;;;;;;;28.05;13.07;;;;;;;13.82;38.71;98253.44;5003714;28;20158;-57
2022/03/04 10:29:27;;;;;;;24.85;11.88;;;;;;;13.15;45.88;98260.16;5006716;28;20104;-56
2022/03/04 10:32:09;;;;;;;27.90;12.10;;;;;;;13.42;39.14;98257.19;5006383;28;20045;-60
2022/03/04 10:34:43;;;;;;;25.58;11.45;;;;;;;14.31;40.66;98252.69;5006436;28;20045;-57
2022/03/04 10:37:09;;;;;;;24.45;11.63;;;;;;;13.93;41.93;98252.03;5005599;28;20045;-58
2022/03/04 10:39:34;;;;;;;26.27;11.95;;;;;;;11.70;41.43;98250.81;5004255;28;20017;-58
2022/03/04 10:42:00;;;;;;;22.27;9.38;;;;;;;13.86;50.56;98243.66;5003843;28;20045;-59
2022/03/04 10:44:26;;;;;;;24.08;10.85;;;;;;;13.26;39.82;98242.16;5006305;28;20036;-59
2022/03/04 10:46:56;;;;;;;25.08;10.98;;;;;;;14.34;40.46;98251.72;5002609;28;20637;-57
2022/03/04 10:49:27;;;;;;;24.65;10.45;;;;;;;14.03;39.77;98243.63;5007266;28;20017;-58
2022/03/04 10:52:08;;;;;;;25.58;10.73;;;;;;;12.23;41.44;98246.03;5005429;28;20049;-58
2022/03/04 10:54:34;;;;;;;23.88;10.00;;;;;;;13.65;43.31;98240.31;5007929;28;20029;-58
2022/03/04 10:57:03;;;;;;;23.27;10.27;;;;;;;12.87;42.03;98240.50;5004754;28;20052;-58
2022/03/04 10:59:29;;;;;;;19.67;8.75;;;;;;;15.17;41.91;98242.84;5004815;28;20061;-57
2022/03/04 11:01:57;;;;;;;22.80;9.80;;;;;;;14.50;43.46;98231.59;5004935;28;20124;-58
2022/03/04 11:04:23;;;;;;;19.10;8.90;;;;;;;14.64;38.97;98230.88;5006764;28;20029;-57
2022/03/04 11:06:49;;;;;;;24.48;9.70;;;;;;;13.16;40.36;98235.69;5004317;28;20052;-59
2022/03/04 11:09:17;;;;;;;17.67;7.72;;;;;;;14.14;55.62;98234.38;5005900;28;20555;-58